Time;durP1;ratioP1;P1;durP2;ratioP2;P2;SDS_P1;SDS_P2;PMS_P1;PMS_P2;Temp;Humidity;BMP_temperature;BMP_pressure;BME280_temperature;BME280_humidity;BME280_pressure;Samples;Min_cycle;Max_cycle;Signal;HPM_P1;HPM_P2
2023/04/18 00:01:05;;;;;;;10.05;6.65;;;9.90;99.90;;;;;;7410498;19;20221;-90
2023/04/18 00:03:34;;;;;;;10.73;7.00;;;9.80;99.90;;;;;;7426025;19;19962;-88
2023/04/18 00:06:09;;;;;;;11.52;6.63;;;9.80;99.90;;;;;;7417396;19;20037;-92
2023/04/18 00:08:38;;;;;;;10.05;6.13;;;9.60;99.90;;;;;;7407218;19;20701;-91
2023/04/18 00:11:07;;;;;;;8.57;6.03;;;9.80;99.90;;;;;;7412479;19;20328;-91
2023/04/18 00:13:37;;;;;;;9.77;6.43;;;9.80;99.90;;;;;;7406304;19;20336;-92
2023/04/18 00:16:06;;;;;;;8.32;6.07;;;9.80;99.90;;;;;;7408860;19;19925;-93
2023/04/18 00:18:41;;;;;;;9.15;6.10;;;9.70;99.90;;;;;;7408864;19;20253;-91
2023/04/18 00:21:13;;;;;;;10.60;6.82;;;9.60;99.90;;;;;;7412225;19;19915;-91
2023/04/18 00:23:47;;;;;;;10.80;6.35;;;9.60;99.90;;;;;;7412817;19;19930;-91
2023/04/18 00:26:16;;;;;;;9.25;5.75;;;9.60;99.90;;;;;;7414622;19;19921;-91
2023/04/18 00:28:45;;;;;;;8.63;5.80;;;9.50;99.90;;;;;;7405458;19;19911;-92
2023/04/18 00:31:14;;;;;;;8.77;5.43;;;9.40;99.90;;;;;;7405493;19;19985;-91
2023/04/18 00:33:43;;;;;;;8.38;5.05;;;9.30;99.90;;;;;;7406954;19;20316;-89
2023/04/18 00:36:14;;;;;;;9.10;5.90;;;9.30;99.90;;;;;;7408089;19;20356;-92
2023/04/18 00:38:43;;;;;;;10.95;6.30;;;9.20;99.90;;;;;;7412640;19;19922;-90
2023/04/18 00:41:12;;;;;;;11.13;6.38;;;9.30;99.90;;;;;;7406850;19;19946;-91
2023/04/18 00:43:41;;;;;;;7.82;5.18;;;9.30;99.90;;;;;;7407790;19;19914;-89
2023/04/18 00:46:10;;;;;;;8.50;5.50;;;9.10;99.90;;;;;;7409201;19;19918;-90
2023/04/18 00:48:40;;;;;;;7.68;5.32;;;9.10;99.90;;;;;;7408137;19;19917;-90
2023/04/18 00:51:14;;;;;;;7.85;5.65;;;9.30;99.90;;;;;;7407258;19;19926;-86
2023/04/18 00:53:43;;;;;;;7.07;4.80;;;9.10;99.90;;;;;;7408037;19;19933;-91
2023/04/18 00:56:13;;;;;;;8.60;4.85;;;9.00;99.90;;;;;;7411417;19;19918;-91
2023/04/18 00:58:42;;;;;;;9.43;5.65;;;9.10;99.90;;;;;;7407904;19;20267;-91
2023/04/18 01:01:12;;;;;;;7.85;4.93;;;9.10;99.90;;;;;;7409135;19;20266;-90
2023/04/18 01:03:41;;;;;;;14.98;5.78;;;9.10;99.90;;;;;;7411482;19;19922;-89
2023/04/18 01:06:10;;;;;;;8.98;5.55;;;9.10;99.90;;;;;;7410148;19;19925;-91
2023/04/18 01:08:42;;;;;;;9.02;5.20;;;9.00;99.90;;;;;;7409190;19;19922;-90
2023/04/18 01:11:11;;;;;;;6.70;4.70;;;9.20;99.90;;;;;;7407178;19;19926;-89
2023/04/18 01:13:44;;;;;;;7.55;5.03;;;9.10;99.90;;;;;;7407608;19;19929;-90
2023/04/18 01:16:13;;;;;;;9.73;4.80;;;9.10;99.90;;;;;;7409044;19;19974;-90
2023/04/18 01:18:49;;;;;;;9.48;5.53;;;9.00;99.90;;;;;;7405900;19;19915;-91
2023/04/18 01:21:18;;;;;;;7.95;4.60;;;9.20;99.90;;;;;;7407993;19;19922;-90
2023/04/18 01:23:51;;;;;;;8.73;5.18;;;9.00;99.90;;;;;;7406025;19;20002;-91
2023/04/18 01:26:23;;;;;;;9.80;6.13;;;8.90;99.90;;;;;;7407390;19;19944;-91
2023/04/18 01:28:54;;;;;;;8.73;5.80;;;9.10;99.90;;;;;;7408684;19;19922;-91
2023/04/18 01:31:23;;;;;;;9.82;5.38;;;9.20;99.90;;;;;;7431149;19;19922;-88
2023/04/18 01:33:52;;;;;;;10.63;6.78;;;9.10;99.90;;;;;;7438360;19;19918;-90
2023/04/18 01:36:21;;;;;;;10.13;5.68;;;9.00;99.90;;;;;;7426036;19;19982;-91
2023/04/18 01:38:50;;;;;;;11.60;5.53;;;9.10;99.90;;;;;;7420018;19;20023;-91
2023/04/18 01:41:22;;;;;;;8.73;5.55;;;9.00;99.90;;;;;;7410368;19;19917;-90
2023/04/18 01:43:51;;;;;;;9.07;5.68;;;9.10;99.90;;;;;;7410135;19;20301;-90
2023/04/18 01:46:20;;;;;;;8.55;5.28;;;9.00;99.90;;;;;;7414677;19;19918;-92
2023/04/18 01:48:49;;;;;;;10.73;5.97;;;9.00;99.90;;;;;;7407304;19;20313;-92
2023/04/18 01:51:18;;;;;;;7.55;4.88;;;8.90;99.90;;;;;;7409013;19;20341;-90
2023/04/18 01:53:47;;;;;;;11.15;6.18;;;9.00;99.90;;;;;;7406722;19;19999;-91
2023/04/18 01:56:16;;;;;;;10.73;5.30;;;8.90;99.90;;;;;;7409551;19;20313;-90
2023/04/18 01:58:48;;;;;;;8.93;5.43;;;9.00;99.90;;;;;;7406623;19;20577;-90
2023/04/18 02:01:17;;;;;;;8.50;5.93;;;8.90;99.90;;;;;;7409778;19;19926;-91
2023/04/18 02:03:47;;;;;;;9.98;5.70;;;9.00;99.90;;;;;;7408469;19;19918;-91
2023/04/18 02:06:15;;;;;;;9.32;5.38;;;9.00;99.90;;;;;;7406558;19;19919;-91
2023/04/18 02:08:45;;;;;;;11.32;5.82;;;9.00;99.90;;;;;;7406639;19;19939;-89
2023/04/18 02:11:14;;;;;;;8.30;5.05;;;9.00;99.90;;;;;;7406577;19;19926;-91
2023/04/18 02:13:43;;;;;;;7.32;5.95;;;8.90;99.90;;;;;;7407650;19;19926;-90
2023/04/18 02:16:16;;;;;;;8.15;5.43;;;9.30;99.90;;;;;;7406561;19;19918;-89
2023/04/18 02:18:45;;;;;;;9.95;5.97;;;9.00;99.90;;;;;;7407514;19;19926;-91
2023/04/18 02:21:14;;;;;;;8.05;5.13;;;9.00;99.90;;;;;;7409570;19;20392;-91
2023/04/18 02:23:43;;;;;;;7.13;5.70;;;9.10;99.90;;;;;;7408829;19;19919;-89
2023/04/18 02:26:12;;;;;;;12.55;5.28;;;8.80;99.90;;;;;;7406140;19;19922;-90
2023/04/18 02:28:41;;;;;;;11.70;6.07;;;8.80;99.90;;;;;;7415643;19;19919;-92
2023/04/18 02:31:13;;;;;;;10.57;5.07;;;8.90;99.90;;;;;;7415621;19;19915;-89
2023/04/18 02:33:47;;;;;;;7.50;4.82;;;8.90;99.90;;;;;;7410991;19;19906;-91
2023/04/18 02:36:16;;;;;;;6.07;4.55;;;8.90;99.90;;;;;;7418561;19;19929;-92
2023/04/18 02:38:45;;;;;;;6.90;4.75;;;8.80;99.90;;;;;;7426786;19;19915;-88
2023/04/18 02:41:18;;;;;;;7.95;5.32;;;9.00;99.90;;;;;;7416224;19;19919;-91
2023/04/18 02:43:47;;;;;;;7.80;4.50;;;8.90;99.90;;;;;;7412608;19;20329;-89
2023/04/18 02:46:21;;;;;;;7.60;4.50;;;8.90;99.90;;;;;;7413001;19;19915;-90
2023/04/18 02:48:53;;;;;;;13.75;5.38;;;9.00;99.90;;;;;;7416408;19;19919;-91
2023/04/18 02:51:23;;;;;;;6.88;4.47;;;8.80;99.90;;;;;;7413919;19;19919;-89
2023/04/18 02:53:53;;;;;;;8.50;4.85;;;9.00;99.90;;;;;;7413693;19;19931;-91
2023/04/18 02:56:23;;;;;;;6.35;4.28;;;8.90;99.90;;;;;;7411405;19;20487;-90
2023/04/18 02:58:52;;;;;;;7.40;4.88;;;9.00;99.90;;;;;;7411859;19;19937;-89
2023/04/18 03:01:21;;;;;;;7.10;4.93;;;8.90;99.90;;;;;;7415215;19;19982;-90
2023/04/18 03:03:52;;;;;;;10.63;5.10;;;9.50;99.90;;;;;;7411505;19;20276;-90
2023/04/18 03:06:21;;;;;;;7.05;4.55;;;8.80;99.90;;;;;;7411557;19;20024;-90
2023/04/18 03:08:50;;;;;;;7.30;4.97;;;8.80;99.90;;;;;;7410084;19;19913;-90
2023/04/18 03:11:20;;;;;;;7.90;4.70;;;8.70;99.90;;;;;;7421520;19;19954;-89
2023/04/18 03:13:49;;;;;;;6.43;4.90;;;8.70;99.90;;;;;;7411396;19;19981;-90
2023/04/18 03:16:18;;;;;;;5.65;4.22;;;8.80;99.90;;;;;;7409671;19;19985;-89
2023/04/18 03:18:55;;;;;;;7.53;5.50;;;9.50;99.90;;;;;;7409577;19;19929;-89
2023/04/18 03:21:23;;;;;;;7.57;4.30;;;8.80;99.90;;;;;;7409859;19;19918;-92
2023/04/18 03:23:53;;;;;;;8.40;4.57;;;8.80;99.90;;;;;;7409874;19;19974;-90
2023/04/18 03:26:22;;;;;;;5.78;4.32;;;8.70;99.90;;;;;;7409469;19;19922;-92
2023/04/18 03:28:51;;;;;;;9.48;5.50;;;8.60;99.90;;;;;;7407560;19;19991;-92
2023/04/18 03:31:20;;;;;;;7.25;4.25;;;8.70;99.90;;;;;;7409896;19;20003;-91
2023/04/18 03:33:50;;;;;;;7.18;4.80;;;8.80;99.90;;;;;;7411171;19;19947;-89
2023/04/18 03:36:24;;;;;;;5.95;4.30;;;8.60;99.90;;;;;;7411198;19;19921;-92
2023/04/18 03:38:53;;;;;;;6.00;3.88;;;8.60;99.90;;;;;;7419306;19;19922;-91
2023/04/18 03:41:22;;;;;;;6.97;4.20;;;8.70;99.90;;;;;;7432147;19;19950;-91
2023/04/18 03:43:51;;;;;;;7.28;3.92;;;8.70;99.90;;;;;;7431606;19;19915;-92
2023/04/18 03:46:20;;;;;;;5.30;3.75;;;8.70;99.90;;;;;;7413949;19;19930;-91
2023/04/18 03:48:49;;;;;;;7.50;3.30;;;8.70;99.90;;;;;;7410006;19;19934;-92
2023/04/18 03:51:18;;;;;;;5.30;3.85;;;8.70;99.90;;;;;;7412398;19;19925;-92
2023/04/18 03:53:51;;;;;;;5.50;3.72;;;8.60;99.90;;;;;;7410364;19;19979;-91
2023/04/18 03:56:20;;;;;;;5.20;3.50;;;8.60;99.90;;;;;;7413396;19;20262;-91
2023/04/18 03:58:50;;;;;;;7.75;3.83;;;8.70;99.90;;;;;;7410623;19;20311;-91
2023/04/18 04:01:19;;;;;;;7.60;4.03;;;8.60;99.90;;;;;;7412073;19;20563;-90
2023/04/18 04:03:48;;;;;;;5.22;3.85;;;8.50;99.90;;;;;;7410540;19;20270;-89
2023/04/18 04:06:17;;;;;;;6.10;3.90;;;8.70;99.90;;;;;;7409646;19;19926;-91
2023/04/18 04:08:46;;;;;;;5.57;3.92;;;8.60;99.90;;;;;;7407105;19;20213;-89
2023/04/18 04:11:17;;;;;;;7.88;4.78;;;8.60;99.90;;;;;;7406549;19;19919;-88
2023/04/18 04:13:46;;;;;;;6.32;4.13;;;8.50;99.90;;;;;;7410137;19;19932;-88
2023/04/18 04:16:17;;;;;;;7.68;4.45;;;8.60;99.90;;;;;;7408849;19;19970;-89
2023/04/18 04:18:46;;;;;;;6.13;3.92;;;9.10;99.90;;;;;;7411954;19;19914;-90
2023/04/18 04:21:15;;;;;;;6.55;4.65;;;8.30;99.90;;;;;;7404750;19;19925;-90
2023/04/18 04:23:45;;;;;;;7.28;4.88;;;8.50;99.90;;;;;;7409483;19;19919;-89
2023/04/18 04:26:16;;;;;;;7.82;4.22;;;8.40;99.90;;;;;;7407499;19;20332;-89
2023/04/18 04:28:45;;;;;;;8.65;4.80;;;8.40;99.90;;;;;;7406639;19;19938;-89
2023/04/18 04:31:15;;;;;;;7.43;4.85;;;8.30;99.90;;;;;;7407468;19;20281;-88
2023/04/18 04:33:44;;;;;;;7.32;4.70;;;8.40;99.90;;;;;;7413919;19;19992;-89
2023/04/18 04:36:13;;;;;;;7.13;4.70;;;8.40;99.90;;;;;;7411941;19;19934;-89
2023/04/18 04:38:51;;;;;;;10.13;5.15;;;8.30;99.90;;;;;;7410480;19;19918;-90
2023/04/18 04:41:23;;;;;;;6.32;4.50;;;8.40;99.90;;;;;;7411936;19;20019;-88
2023/04/18 04:43:52;;;;;;;6.30;4.47;;;8.90;99.90;;;;;;7421503;19;19918;-88
2023/04/18 04:46:21;;;;;;;8.15;5.22;;;8.30;99.90;;;;;;7414585;19;19978;-88
2023/04/18 04:48:52;;;;;;;6.55;4.30;;;8.20;99.90;;;;;;7408804;19;20336;-90
2023/04/18 04:51:21;;;;;;;8.13;5.18;;;8.30;99.90;;;;;;7409226;19;19915;-90
2023/04/18 04:53:51;;;;;;;7.43;4.70;;;8.40;99.90;;;;;;7408696;19;19926;-89
2023/04/18 04:56:23;;;;;;;7.03;4.80;;;8.40;99.90;;;;;;7406379;19;19919;-88
2023/04/18 04:58:52;;;;;;;8.07;5.18;;;8.40;99.90;;;;;;7409394;19;19954;-90
2023/04/18 05:01:21;;;;;;;9.23;5.07;;;8.40;99.90;;;;;;7405826;19;20375;-87
2023/04/18 05:03:51;;;;;;;8.82;4.88;;;8.40;99.90;;;;;;7407571;19;19970;-88
2023/04/18 05:06:21;;;;;;;9.75;5.57;;;8.40;99.90;;;;;;7421561;19;19915;-86
2023/04/18 05:08:50;;;;;;;8.23;4.95;;;8.40;99.90;;;;;;7423751;19;19942;-88
2023/04/18 05:11:19;;;;;;;8.27;4.97;;;8.30;99.90;;;;;;7417848;19;20606;-90
2023/04/18 05:13:51;;;;;;;9.57;5.70;;;8.40;99.90;;;;;;7411724;19;19931;-89
2023/04/18 05:16:20;;;;;;;9.20;5.97;;;8.30;99.90;;;;;;7407346;19;19910;-91
2023/04/18 05:18:49;;;;;;;9.75;5.97;;;8.30;99.90;;;;;;7407866;19;19931;-89
2023/04/18 05:21:18;;;;;;;9.18;6.10;;;8.40;99.90;;;;;;7406791;19;20308;-88
2023/04/18 05:23:49;;;;;;;11.15;5.78;;;8.40;99.90;;;;;;7407065;19;20337;-90
2023/04/18 05:26:20;;;;;;;8.63;5.63;;;8.60;99.90;;;;;;7410109;19;19919;-89
2023/04/18 05:28:51;;;;;;;9.25;5.40;;;8.40;99.90;;;;;;7405819;19;19942;-90
2023/04/18 05:31:21;;;;;;;10.15;5.88;;;8.40;99.90;;;;;;7406376;19;19915;-91
2023/04/18 05:33:51;;;;;;;9.07;5.75;;;8.40;99.90;;;;;;7407339;19;19910;-90
2023/04/18 05:36:20;;;;;;;10.18;5.70;;;8.60;99.90;;;;;;7407289;19;20357;-92
2023/04/18 05:38:49;;;;;;;9.45;6.18;;;8.50;99.90;;;;;;7410575;19;19946;-89
2023/04/18 05:41:18;;;;;;;11.02;6.30;;;8.60;99.90;;;;;;7416122;19;19929;-89
2023/04/18 05:43:47;;;;;;;8.38;5.30;;;8.50;99.90;;;;;;7424921;19;20320;-89
2023/04/18 05:46:19;;;;;;;7.05;5.55;;;8.60;99.90;;;;;;7433704;19;20317;-88
2023/04/18 05:48:48;;;;;;;10.77;6.32;;;8.80;99.90;;;;;;7410659;19;19918;-88
2023/04/18 05:51:17;;;;;;;7.50;5.80;;;8.50;99.90;;;;;;7399787;19;19990;-87
2023/04/18 05:53:46;;;;;;;7.60;5.75;;;8.60;99.90;;;;;;7407156;19;19986;-88
2023/04/18 05:56:16;;;;;;;12.23;5.85;;;8.60;99.90;;;;;;7404187;19;19915;-89
2023/04/18 05:58:46;;;;;;;10.95;6.13;;;8.60;99.90;;;;;;7406729;19;19922;-87
2023/04/18 06:01:18;;;;;;;9.32;6.10;;;8.60;99.90;;;;;;7405622;19;19922;-88
2023/04/18 06:03:47;;;;;;;8.57;5.80;;;8.60;99.90;;;;;;7407551;19;19929;-88
2023/04/18 06:06:16;;;;;;;9.73;6.03;;;8.60;99.90;;;;;;7407268;19;19934;-90
2023/04/18 06:08:45;;;;;;;9.73;4.90;;;8.60;99.90;;;;;;7404178;19;19915;-89
2023/04/18 06:11:14;;;;;;;10.90;5.38;;;8.50;99.90;;;;;;7402751;19;19919;-88
2023/04/18 06:13:43;;;;;;;9.45;5.60;;;8.60;99.90;;;;;;7405331;19;19921;-89
2023/04/18 06:16:12;;;;;;;8.30;5.43;;;8.50;99.90;;;;;;7407029;19;19936;-89
2023/04/18 06:18:43;;;;;;;8.63;5.10;;;8.80;99.90;;;;;;7409408;19;20010;-89
2023/04/18 06:21:12;;;;;;;7.45;5.20;;;8.50;99.90;;;;;;7405412;19;19914;-90
2023/04/18 06:23:41;;;;;;;9.48;5.53;;;8.50;99.90;;;;;;7402895;19;19915;-90
2023/04/18 06:26:10;;;;;;;11.20;5.47;;;8.40;99.90;;;;;;7403704;19;19930;-89
2023/04/18 06:28:39;;;;;;;9.35;5.50;;;8.40;99.90;;;;;;7405267;19;19918;-88
2023/04/18 06:31:08;;;;;;;9.50;5.55;;;8.60;99.90;;;;;;7404313;19;19926;-87
2023/04/18 06:33:38;;;;;;;9.73;5.70;;;8.50;99.90;;;;;;7406944;19;19929;-87
2023/04/18 06:36:10;;;;;;;8.07;5.20;;;8.40;99.90;;;;;;7406263;19;19928;-90
2023/04/18 06:38:39;;;;;;;9.07;5.55;;;8.40;99.90;;;;;;7404637;19;19918;-89
2023/04/18 06:41:08;;;;;;;9.43;5.45;;;8.30;99.90;;;;;;7403787;19;19911;-87
2023/04/18 06:43:37;;;;;;;7.93;5.97;;;9.50;99.90;;;;;;7406143;19;19922;-89
2023/04/18 06:46:07;;;;;;;9.55;5.97;;;8.40;99.90;;;;;;7403338;19;19939;-89
2023/04/18 06:48:36;;;;;;;11.30;5.97;;;8.40;99.90;;;;;;7404134;19;20329;-91
2023/04/18 06:51:05;;;;;;;10.50;5.95;;;8.40;99.90;;;;;;7403465;19;19918;-90
2023/04/18 06:53:36;;;;;;;8.55;5.47;;;8.50;99.90;;;;;;7401422;19;19931;-89
2023/04/18 06:56:06;;;;;;;8.40;5.22;;;8.60;99.90;;;;;;7406766;19;19923;-88
2023/04/18 06:58:36;;;;;;;9.60;6.07;;;8.50;99.90;;;;;;7405484;19;19926;-88
2023/04/18 07:01:05;;;;;;;9.57;6.10;;;8.60;99.90;;;;;;7405831;19;19919;-90
2023/04/18 07:03:33;;;;;;;8.85;5.15;;;8.60;99.90;;;;;;7408921;19;19922;-87
2023/04/18 07:06:02;;;;;;;12.75;6.35;;;8.60;99.90;;;;;;7413866;19;19919;-89
2023/04/18 07:08:33;;;;;;;10.45;5.63;;;8.70;99.90;;;;;;7405286;19;19946;-88
2023/04/18 07:11:04;;;;;;;9.23;6.07;;;8.60;99.90;;;;;;7404772;19;19918;-90
2023/04/18 07:13:33;;;;;;;10.40;6.40;;;8.70;99.90;;;;;;7406642;19;19989;-90
2023/04/18 07:16:02;;;;;;;7.97;6.03;;;8.80;99.90;;;;;;7404376;19;19915;-91
2023/04/18 07:18:31;;;;;;;9.68;5.82;;;9.90;99.90;;;;;;7405964;19;19925;-91
2023/04/18 07:21:01;;;;;;;8.23;5.93;;;8.70;99.90;;;;;;7412360;19;19923;-89
2023/04/18 07:23:30;;;;;;;8.55;5.50;;;8.80;99.90;;;;;;7416561;19;19938;-90
2023/04/18 07:26:00;;;;;;;10.48;5.28;;;8.80;99.90;;;;;;7412646;19;19947;-90
2023/04/18 07:28:33;;;;;;;12.07;5.63;;;8.40;99.90;;;;;;7415686;19;19918;-90
2023/04/18 07:31:03;;;;;;;8.88;5.22;;;8.80;99.90;;;;;;7411843;19;19945;-85
2023/04/18 07:33:32;;;;;;;10.25;5.85;;;9.10;99.90;;;;;;7413977;19;19925;-91
2023/04/18 07:36:02;;;;;;;6.63;5.32;;;9.00;99.90;;;;;;7410128;19;20252;-88
2023/04/18 07:38:31;;;;;;;10.35;5.88;;;9.00;99.90;;;;;;7410776;19;19978;-91
2023/04/18 07:41:00;;;;;;;9.30;5.97;;;9.00;99.90;;;;;;7405718;19;19922;-90
2023/04/18 07:43:32;;;;;;;8.85;5.47;;;9.00;99.90;;;;;;7411175;19;19919;-89
2023/04/18 07:46:01;;;;;;;9.50;5.38;;;9.20;99.90;;;;;;7410991;19;20014;-89
2023/04/18 07:48:30;;;;;;;9.57;5.60;;;9.10;99.90;;;;;;7414133;19;19974;-88
2023/04/18 07:50:58;;;;;;;10.90;5.85;;;9.10;99.90;;;;;;7426194;19;19952;-89
2023/04/18 07:53:27;;;;;;;8.55;5.70;;;9.20;99.90;;;;;;7428944;19;19951;-88
2023/04/18 07:55:57;;;;;;;9.30;5.38;;;9.30;99.90;;;;;;7423744;19;19927;-90
2023/04/18 07:58:26;;;;;;;9.48;5.63;;;9.30;99.90;;;;;;7414272;19;19929;-89
2023/04/18 08:00:58;;;;;;;8.23;5.03;;;9.30;99.90;;;;;;7410218;19;19923;-91
2023/04/18 08:03:28;;;;;;;6.72;4.53;;;9.40;99.90;;;;;;7407367;19;19914;-90
2023/04/18 08:05:57;;;;;;;7.03;4.60;;;9.50;99.90;;;;;;7405581;19;19923;-85
2023/04/18 08:08:26;;;;;;;9.10;5.13;;;9.60;99.90;;;;;;7403643;19;19918;-85
2023/04/18 08:10:55;;;;;;;7.75;4.97;;;9.50;99.90;;;;;;7402207;19;20024;-86
2023/04/18 08:13:24;;;;;;;8.88;4.57;;;9.50;99.90;;;;;;7401381;19;19914;-83
2023/04/18 08:15:54;;;;;;;6.82;4.55;;;9.50;99.90;;;;;;7398732;19;19925;-84
2023/04/18 08:18:26;;;;;;;7.53;4.93;;;9.70;99.90;;;;;;7404187;19;19918;-84
2023/04/18 08:20:55;;;;;;;8.55;5.15;;;9.80;99.90;;;;;;7404482;19;20412;-89
2023/04/18 08:23:24;;;;;;;8.82;5.22;;;9.70;99.90;;;;;;7401737;19;19926;-83
2023/04/18 08:25:53;;;;;;;7.57;4.30;;;9.90;99.90;;;;;;7401814;19;19918;-82
2023/04/18 08:28:22;;;;;;;8.02;4.45;;;9.70;99.90;;;;;;7404581;19;19919;-86
2023/04/18 08:30:51;;;;;;;9.70;5.72;;;9.80;99.90;;;;;;7402042;19;19930;-89
2023/04/18 08:33:20;;;;;;;6.90;4.72;;;9.80;99.90;;;;;;7402678;19;19927;-90
2023/04/18 08:35:53;;;;;;;9.00;4.65;;;9.90;99.90;;;;;;7402154;19;19915;-82
2023/04/18 08:38:22;;;;;;;9.32;4.75;;;9.90;99.90;;;;;;7402836;19;19930;-82
2023/04/18 08:40:51;;;;;;;6.65;4.50;;;10.20;99.90;;;;;;7404017;19;19919;-87
2023/04/18 08:43:20;;;;;;;9.50;4.70;;;10.20;99.90;;;;;;7401697;19;19936;-81
2023/04/18 08:45:49;;;;;;;8.15;5.13;;;10.10;99.90;;;;;;7404925;19;19914;-84
2023/04/18 08:48:19;;;;;;;6.72;4.47;;;10.20;99.90;;;;;;7401904;19;19942;-84
2023/04/18 08:50:51;;;;;;;9.15;5.20;;;10.10;99.90;;;;;;7401882;19;19944;-82
2023/04/18 08:53:20;;;;;;;9.35;4.68;;;10.20;99.90;;;;;;7401484;19;19925;-81
2023/04/18 08:55:50;;;;;;;7.35;5.00;;;10.40;99.90;;;;;;7403008;19;19970;-82
2023/04/18 08:58:25;;;;;;;9.35;4.93;;;10.40;99.90;;;;;;7403260;19;19926;-82
2023/04/18 09:00:55;;;;;;;5.68;4.63;;;10.30;99.90;;;;;;7399378;19;19919;-83
2023/04/18 09:03:42;;;;;;;6.90;4.93;;;10.30;99.90;;;;;;7399429;19;19933;-80
2023/04/18 09:06:19;;;;;;;7.18;4.05;;;10.60;99.90;;;;;;7403035;19;20475;-80
2023/04/18 09:08:59;;;;;;;8.00;5.53;;;10.50;99.90;;;;;;7401576;19;19923;-80
2023/04/18 09:11:30;;;;;;;7.50;5.40;;;10.50;99.90;;;;;;7400293;19;20280;-81
2023/04/18 09:14:01;;;;;;;12.40;5.10;;;10.60;99.90;;;;;;7402539;19;19923;-82
2023/04/18 09:16:33;;;;;;;8.38;5.60;;;10.70;99.90;;;;;;7230936;19;19961;-81
2023/04/18 09:19:17;;;;;;;8.63;5.70;;;10.70;99.90;;;;;;7406320;19;20270;-83
2023/04/18 09:21:48;;;;;;;9.82;4.70;;;11.00;99.90;;;;;;7400764;19;19982;-82
2023/04/18 09:24:19;;;;;;;8.25;5.25;;;10.80;99.90;;;;;;7399285;19;19922;-82
2023/04/18 09:26:49;;;;;;;6.38;4.68;;;10.90;99.90;;;;;;7401556;19;19933;-87
2023/04/18 09:29:21;;;;;;;11.25;4.88;;;11.10;99.90;;;;;;7401192;19;19938;-85
2023/04/18 09:32:01;;;;;;;7.43;5.38;;;11.00;99.90;;;;;;7402971;19;19937;-89
2023/04/18 09:34:32;;;;;;;11.85;5.75;;;11.00;99.90;;;;;;7405800;19;19922;-88
2023/04/18 09:37:14;;;;;;;8.13;4.95;;;11.20;99.90;;;;;;7402116;19;19943;-84
2023/04/18 09:39:45;;;;;;;8.15;5.10;;;11.40;99.90;;;;;;7401359;19;19926;-81
2023/04/18 09:42:15;;;;;;;10.55;5.63;;;11.40;99.90;;;;;;7400575;19;20353;-82
2023/04/18 09:45:00;;;;;;;11.15;6.05;;;11.40;99.90;;;;;;7400597;19;19929;-84
2023/04/18 09:47:30;;;;;;;9.77;5.45;;;11.60;99.90;;;;;;7399697;19;19947;-86
2023/04/18 09:49:59;;;;;;;8.65;5.43;;;11.50;99.90;;;;;;7404192;19;19942;-79
2023/04/18 09:52:35;;;;;;;9.10;4.88;;;11.80;99.90;;;;;;7399855;19;19928;-89
2023/04/18 09:55:06;;;;;;;8.25;4.90;;;11.80;99.90;;;;;;7400967;19;19915;-82
2023/04/18 09:57:39;;;;;;;7.47;4.82;;;11.90;99.90;;;;;;7401402;19;19929;-82
2023/04/18 10:00:16;;;;;;;7.88;4.78;;;12.00;99.90;;;;;;7414466;19;19954;-86
2023/04/18 10:02:59;;;;;;;6.53;4.80;;;12.00;99.90;;;;;;7409478;19;19926;-86
2023/04/18 10:05:32;;;;;;;7.43;4.68;;;12.10;99.90;;;;;;7400224;19;20279;-86
2023/04/18 10:08:04;;;;;;;7.45;4.50;;;12.10;99.90;;;;;;7401807;19;19926;-80
2023/04/18 10:10:35;;;;;;;7.60;5.03;;;12.10;99.90;;;;;;7402565;19;20256;-79
2023/04/18 10:13:07;;;;;;;7.00;4.97;;;12.20;99.90;;;;;;7401427;19;19922;-89
2023/04/18 10:15:36;;;;;;;;;;;12.20;99.90;;;;;;7411053;19;19921;-91
2023/04/18 10:18:10;;;;;;;7.10;4.57;;;12.20;99.90;;;;;;7407979;19;19922;-90
2023/04/18 10:20:43;;;;;;;7.15;4.68;;;12.50;99.90;;;;;;7411480;19;19923;-86
2023/04/18 10:23:40;;;;;;;8.48;4.57;;;12.50;99.90;;;;;;7404337;19;19922;-87
2023/04/18 10:26:09;;;;;;;6.85;4.75;;;12.60;99.90;;;;;;7411431;19;19922;-92
2023/04/18 10:29:00;;;;;;;7.20;4.65;;;12.60;99.90;;;;;;7409738;19;20336;-87
2023/04/18 10:31:30;;;;;;;5.60;4.25;;;12.80;99.90;;;;;;7407284;19;19938;-91
2023/04/18 10:34:00;;;;;;;5.72;4.45;;;12.70;99.90;;;;;;7408026;19;19915;-86
2023/04/18 10:36:29;;;;;;;8.02;4.25;;;12.70;99.90;;;;;;7402086;19;20037;-87
2023/04/18 10:39:02;;;;;;;7.50;4.43;;;12.70;99.90;;;;;;7402408;19;19929;-86
2023/04/18 10:41:33;;;;;;;6.22;3.90;;;12.90;99.90;;;;;;7399038;19;19924;-87
2023/04/18 10:44:23;;;;;;;8.20;5.15;;;12.90;99.90;;;;;;7401955;19;19998;-87
2023/04/18 10:47:21;;;;;;;8.35;4.57;;;12.90;99.90;;;;;;7400554;19;20372;-84
2023/04/18 10:50:03;;;;;;;7.10;5.15;;;13.00;99.90;;;;;;7398427;19;19979;-84
2023/04/18 10:52:32;;;;;;;7.68;4.22;;;13.20;99.90;;;;;;7396771;19;19982;-82
2023/04/18 10:55:25;;;;;;;7.05;4.57;;;13.20;99.90;;;;;;7399346;19;20380;-88
2023/04/18 10:57:55;;;;;;;8.23;4.93;;;13.30;99.90;;;;;;7407643;19;19934;-85
2023/04/18 11:00:25;;;;;;;9.27;5.00;;;13.40;99.90;;;;;;7406901;19;20275;-83
2023/04/18 11:02:56;;;;;;;6.97;4.97;;;13.40;99.90;;;;;;7409697;19;20529;-89
2023/04/18 11:05:28;;;;;;;6.85;3.95;;;13.50;99.90;;;;;;7409484;19;20022;-93
2023/04/18 11:07:57;;;;;;;8.35;4.57;;;13.30;99.90;;;;;;7410921;19;19922;-86
2023/04/18 11:10:29;;;;;;;9.73;4.72;;;13.50;99.90;;;;;;7405994;19;19974;-90
2023/04/18 11:13:03;;;;;;;;;;;13.60;99.90;;;;;;7409220;19;19946;-88
2023/04/18 11:15:32;;;;;;;6.25;3.83;;;13.70;99.90;;;;;;7402579;19;20490;-88
2023/04/18 11:18:02;;;;;;;5.97;3.78;;;13.70;99.90;;;;;;7405877;19;19926;-88
2023/04/18 11:20:38;;;;;;;5.43;3.35;;;13.80;99.90;;;;;;7408935;19;19932;-88
2023/04/18 11:23:19;;;;;;;6.35;3.50;;;13.90;99.90;;;;;;7405733;19;19922;-88
2023/04/18 11:25:52;;;;;;;8.43;3.97;;;13.70;99.90;;;;;;7407121;19;19923;-87
2023/04/18 11:28:23;;;;;;;7.07;4.00;;;13.90;99.90;;;;;;7408065;19;19923;-88
2023/04/18 11:30:52;;;;;;;4.85;3.25;;;14.10;99.90;;;;;;7423242;19;19930;-87
2023/04/18 11:33:21;;;;;;;5.68;3.30;;;14.10;99.90;;;;;;7407833;19;19936;-87
2023/04/18 11:35:50;;;;;;;5.63;3.15;;;14.20;99.90;;;;;;7406531;19;19925;-88
2023/04/18 11:38:19;;;;;;;3.63;2.67;;;14.20;99.90;;;;;;7406513;19;19918;-88
2023/04/18 11:40:54;;;;;;;4.40;3.03;;;14.30;99.90;;;;;;7406430;19;19914;-88
2023/04/18 11:43:24;;;;;;;4.35;3.08;;;14.40;99.90;;;;;;7405037;19;19919;-88
2023/04/18 11:45:54;;;;;;;5.10;2.83;;;14.40;99.90;;;;;;7408412;19;19918;-88
2023/04/18 11:48:23;;;;;;;3.28;2.60;;;14.50;99.90;;;;;;7405232;19;19942;-88
2023/04/18 11:50:52;;;;;;;3.17;2.85;;;14.50;99.90;;;;;;7406979;19;19926;-87
2023/04/18 11:53:34;;;;;;;4.53;2.85;;;14.70;99.90;;;;;;7407513;19;20271;-87
2023/04/18 11:56:07;;;;;;;3.45;2.30;;;14.80;99.90;;;;;;7405876;19;19918;-86
2023/04/18 11:58:37;;;;;;;3.28;2.50;;;14.70;99.90;;;;;;7407480;19;19918;-87
2023/04/18 12:01:20;;;;;;;3.05;2.42;;;14.90;99.90;;;;;;7408129;19;19922;-86
2023/04/18 12:04:02;;;;;;;3.92;2.58;;;15.00;99.90;;;;;;7407485;19;20339;-87
2023/04/18 12:06:49;;;;;;;3.25;2.58;;;15.00;99.90;;;;;;7404794;19;19926;-88
2023/04/18 12:09:19;;;;;;;5.03;2.17;;;15.10;99.90;;;;;;7410754;19;19910;-88
2023/04/18 12:12:01;;;;;;;4.05;2.47;;;15.00;99.90;;;;;;7432380;19;20138;-87
2023/04/18 12:14:31;;;;;;;4.50;2.38;;;15.00;99.90;;;;;;7429470;19;19910;-88
2023/04/18 12:17:00;;;;;;;3.25;2.28;;;14.80;99.90;;;;;;7417569;19;19986;-87
2023/04/18 12:19:29;;;;;;;4.30;2.35;;;14.90;99.90;;;;;;7411815;19;19985;-88
2023/04/18 12:21:59;;;;;;;4.25;2.42;;;14.80;99.90;;;;;;7402774;19;20269;-88
2023/04/18 12:24:29;;;;;;;4.32;2.38;;;15.00;99.90;;;;;;7404388;19;19931;-87
2023/04/18 12:27:01;;;;;;;4.30;2.75;;;14.90;99.90;;;;;;7407072;19;19939;-87
2023/04/18 12:29:30;;;;;;;5.82;2.30;;;14.90;99.90;;;;;;7413617;19;19974;-87
2023/04/18 12:31:59;;;;;;;4.22;2.75;;;15.00;99.90;;;;;;7411499;19;19918;-88
2023/04/18 12:34:28;;;;;;;3.95;2.90;;;15.30;99.90;;;;;;7418362;19;19914;-87
2023/04/18 12:36:57;;;;;;;5.55;2.42;;;15.40;99.90;;;;;;7426812;19;19922;-87
2023/04/18 12:39:26;;;;;;;4.28;2.90;;;15.40;99.90;;;;;;7420075;19;19922;-87
2023/04/18 12:41:55;;;;;;;3.85;3.25;;;15.30;99.90;;;;;;7411131;19;20181;-89
2023/04/18 12:44:27;;;;;;;3.97;3.08;;;15.30;99.90;;;;;;7410366;19;19943;-87
2023/04/18 12:46:56;;;;;;;5.78;3.00;;;15.40;99.90;;;;;;7407433;19;19966;-89
2023/04/18 12:49:25;;;;;;;5.78;2.85;;;15.70;99.90;;;;;;7410374;19;19942;-89
2023/04/18 12:51:54;;;;;;;3.65;2.88;;;15.60;99.90;;;;;;7405521;19;19922;-89
2023/04/18 12:54:24;;;;;;;3.92;2.50;;;15.70;99.90;;;;;;7404837;19;19931;-88
2023/04/18 12:56:53;;;;;;;4.25;2.75;;;15.70;99.90;;;;;;7406508;19;19934;-88
2023/04/18 12:59:22;;;;;;;7.03;2.95;;;15.80;99.90;;;;;;7404705;19;19921;-89
2023/04/18 13:01:53;;;;;;;5.68;3.10;;;16.10;99.90;;;;;;7405951;19;19918;-89
2023/04/18 13:04:23;;;;;;;4.38;3.10;;;16.40;99.90;;;;;;7405366;19;19918;-90
2023/04/18 13:06:51;;;;;;;4.88;2.78;;;16.50;99.90;;;;;;7408036;19;19926;-90
2023/04/18 13:09:21;;;;;;;4.78;2.90;;;16.50;99.90;;;;;;7407460;19;19926;-89
2023/04/18 13:11:50;;;;;;;4.68;3.17;;;16.50;99.90;;;;;;7405888;19;19923;-90